sensor_id;sensor_type;location;lat;lon;timestamp;temperature;humidity
72646;DHT22;60687;53.876;10.674;2023-04-12T00:02:22;6.00;99.90
72646;DHT22;60687;53.876;10.674;2023-04-12T00:12:24;5.90;99.90
72646;DHT22;60687;53.876;10.674;2023-04-12T00:22:28;5.90;99.90
72646;DHT22;60687;53.876;10.674;2023-04-12T00:32:31;5.80;99.90
72646;DHT22;60687;53.876;10.674;2023-04-12T00:42:35;5.70;99.90
72646;DHT22;60687;53.876;10.674;2023-04-12T00:52:38;5.60;99.90
72646;DHT22;60687;53.876;10.674;2023-04-12T01:02:45;5.60;99.90
72646;DHT22;60687;53.876;10.674;2023-04-12T01:12:54;5.50;99.90
72646;DHT22;60687;53.876;10.674;2023-04-12T01:23:13;5.40;99.90
72646;DHT22;60687;53.876;10.674;2023-04-12T01:33:19;5.30;99.90
72646;DHT22;60687;53.876;10.674;2023-04-12T01:43:22;5.20;99.90
72646;DHT22;60687;53.876;10.674;2023-04-12T01:53:34;5.10;99.90
72646;DHT22;60687;53.876;10.674;2023-04-12T02:03:40;5.10;99.90
72646;DHT22;60687;53.876;10.674;2023-04-12T02:13:45;5.10;99.90
72646;DHT22;60687;53.876;10.674;2023-04-12T02:23:48;5.10;99.90
72646;DHT22;60687;53.876;10.674;2023-04-12T02:33:51;5.00;99.90
72646;DHT22;60687;53.876;10.674;2023-04-12T02:43:55;5.00;99.90
72646;DHT22;60687;53.876;10.674;2023-04-12T02:53:59;5.00;99.90
72646;DHT22;60687;53.876;10.674;2023-04-12T03:04:11;4.90;99.90
72646;DHT22;60687;53.876;10.674;2023-04-12T03:14:20;4.90;99.90
72646;DHT22;60687;53.876;10.674;2023-04-12T03:24:23;4.90;99.90
72646;DHT22;60687;53.876;10.674;2023-04-12T03:34:28;4.90;99.90
72646;DHT22;60687;53.876;10.674;2023-04-12T03:44:38;4.80;99.90
72646;DHT22;60687;53.876;10.674;2023-04-12T03:54:47;4.80;99.90
72646;DHT22;60687;53.876;10.674;2023-04-12T04:04:58;4.90;99.90
72646;DHT22;60687;53.876;10.674;2023-04-12T04:15:09;4.90;99.90
72646;DHT22;60687;53.876;10.674;2023-04-12T04:25:11;4.90;99.90
72646;DHT22;60687;53.876;10.674;2023-04-12T04:35:18;4.90;99.90
72646;DHT22;60687;53.876;10.674;2023-04-12T04:45:55;4.90;99.90
72646;DHT22;60687;53.876;10.674;2023-04-12T04:56:00;4.90;99.90
72646;DHT22;60687;53.876;10.674;2023-04-12T05:06:08;5.00;99.90
72646;DHT22;60687;53.876;10.674;2023-04-12T05:16:14;5.10;99.90
72646;DHT22;60687;53.876;10.674;2023-04-12T05:26:17;5.20;99.90
72646;DHT22;60687;53.876;10.674;2023-04-12T05:36:25;5.30;99.90
72646;DHT22;60687;53.876;10.674;2023-04-12T05:46:28;5.40;99.90
72646;DHT22;60687;53.876;10.674;2023-04-12T05:56:32;5.60;99.90
72646;DHT22;60687;53.876;10.674;2023-04-12T06:06:35;5.80;99.90
72646;DHT22;60687;53.876;10.674;2023-04-12T06:16:39;6.10;99.00
72646;DHT22;60687;53.876;10.674;2023-04-12T06:26:44;6.40;98.90
72646;DHT22;60687;53.876;10.674;2023-04-12T06:36:49;6.70;97.70
72646;DHT22;60687;53.876;10.674;2023-04-12T06:46:51;7.10;94.40
72646;DHT22;60687;53.876;10.674;2023-04-12T06:56:55;7.50;92.70
72646;DHT22;60687;53.876;10.674;2023-04-12T07:06:58;7.80;90.10
72646;DHT22;60687;53.876;10.674;2023-04-12T07:17:02;8.20;86.80
72646;DHT22;60687;53.876;10.674;2023-04-12T07:27:04;8.50;82.70
72646;DHT22;60687;53.876;10.674;2023-04-12T07:37:08;8.90;80.60
72646;DHT22;60687;53.876;10.674;2023-04-12T07:47:10;9.30;78.70
72646;DHT22;60687;53.876;10.674;2023-04-12T07:57:14;9.70;75.00
72646;DHT22;60687;53.876;10.674;2023-04-12T08:07:17;10.00;74.00
72646;DHT22;60687;53.876;10.674;2023-04-12T08:17:21;10.40;68.20
72646;DHT22;60687;53.876;10.674;2023-04-12T08:27:28;10.50;66.50
72646;DHT22;60687;53.876;10.674;2023-04-12T08:37:32;10.70;65.40
72646;DHT22;60687;53.876;10.674;2023-04-12T08:47:37;11.00;62.70
72646;DHT22;60687;53.876;10.674;2023-04-12T08:57:41;11.20;61.30
72646;DHT22;60687;53.876;10.674;2023-04-12T09:07:44;11.50;62.40
72646;DHT22;60687;53.876;10.674;2023-04-12T09:17:47;11.80;59.70
72646;DHT22;60687;53.876;10.674;2023-04-12T09:27:51;12.00;57.90
72646;DHT22;60687;53.876;10.674;2023-04-12T09:38:06;12.30;59.80
72646;DHT22;60687;53.876;10.674;2023-04-12T09:48:19;12.30;56.80
72646;DHT22;60687;53.876;10.674;2023-04-12T09:58:31;12.20;56.90
72646;DHT22;60687;53.876;10.674;2023-04-12T10:08:37;12.10;56.60
72646;DHT22;60687;53.876;10.674;2023-04-12T10:18:44;12.10;57.50
72646;DHT22;60687;53.876;10.674;2023-04-12T10:29:23;12.10;58.00
72646;DHT22;60687;53.876;10.674;2023-04-12T10:39:41;12.20;55.20
72646;DHT22;60687;53.876;10.674;2023-04-12T10:50:18;12.30;56.20
72646;DHT22;60687;53.876;10.674;2023-04-12T11:00:22;12.30;56.70
72646;DHT22;60687;53.876;10.674;2023-04-12T11:10:25;12.40;55.50
72646;DHT22;60687;53.876;10.674;2023-04-12T11:20:33;12.40;56.40
72646;DHT22;60687;53.876;10.674;2023-04-12T11:30:36;12.40;57.20
72646;DHT22;60687;53.876;10.674;2023-04-12T11:40:50;12.30;57.20
72646;DHT22;60687;53.876;10.674;2023-04-12T11:50:53;12.20;56.30
72646;DHT22;60687;53.876;10.674;2023-04-12T12:01:05;12.10;58.30
72646;DHT22;60687;53.876;10.674;2023-04-12T12:11:08;12.00;57.90
72646;DHT22;60687;53.876;10.674;2023-04-12T12:21:13;11.90;59.40
72646;DHT22;60687;53.876;10.674;2023-04-12T12:31:18;11.90;62.40
72646;DHT22;60687;53.876;10.674;2023-04-12T12:41:23;11.90;64.50
72646;DHT22;60687;53.876;10.674;2023-04-12T12:51:27;11.80;67.00
72646;DHT22;60687;53.876;10.674;2023-04-12T13:01:30;11.60;71.60
72646;DHT22;60687;53.876;10.674;2023-04-12T13:11:33;11.50;75.10
72646;DHT22;60687;53.876;10.674;2023-04-12T13:21:37;11.30;80.90
72646;DHT22;60687;53.876;10.674;2023-04-12T13:31:39;11.10;88.30
72646;DHT22;60687;53.876;10.674;2023-04-12T13:41:43;11.00;92.80
72646;DHT22;60687;53.876;10.674;2023-04-12T13:51:45;10.90;94.40
72646;DHT22;60687;53.876;10.674;2023-04-12T14:01:49;10.70;96.80
72646;DHT22;60687;53.876;10.674;2023-04-12T14:11:52;10.60;97.90
72646;DHT22;60687;53.876;10.674;2023-04-12T14:21:57;10.60;99.70
72646;DHT22;60687;53.876;10.674;2023-04-12T14:32:02;10.60;99.90
72646;DHT22;60687;53.876;10.674;2023-04-12T14:42:06;10.40;99.90
72646;DHT22;60687;53.876;10.674;2023-04-12T14:52:10;10.30;99.90
72646;DHT22;60687;53.876;10.674;2023-04-12T15:02:14;10.20;99.90
72646;DHT22;60687;53.876;10.674;2023-04-12T15:12:17;10.10;99.90
72646;DHT22;60687;53.876;10.674;2023-04-12T15:22:24;10.00;99.90
72646;DHT22;60687;53.876;10.674;2023-04-12T15:32:27;10.00;99.90
72646;DHT22;60687;53.876;10.674;2023-04-12T15:42:32;9.90;99.90
72646;DHT22;60687;53.876;10.674;2023-04-12T15:52:35;9.90;99.90
72646;DHT22;60687;53.876;10.674;2023-04-12T16:02:38;9.90;99.90
72646;DHT22;60687;53.876;10.674;2023-04-12T16:12:45;9.90;99.90
72646;DHT22;60687;53.876;10.674;2023-04-12T16:22:52;9.80;99.90
72646;DHT22;60687;53.876;10.674;2023-04-12T16:32:56;9.70;99.90
72646;DHT22;60687;53.876;10.674;2023-04-12T16:43:00;9.70;99.90
72646;DHT22;60687;53.876;10.674;2023-04-12T16:53:03;9.60;99.90
72646;DHT22;60687;53.876;10.674;2023-04-12T17:03:16;9.60;99.90
72646;DHT22;60687;53.876;10.674;2023-04-12T17:13:18;9.60;99.90
72646;DHT22;60687;53.876;10.674;2023-04-12T17:23:22;9.60;99.90
72646;DHT22;60687;53.876;10.674;2023-04-12T17:33:25;9.50;99.90
72646;DHT22;60687;53.876;10.674;2023-04-12T17:43:29;9.50;99.90
72646;DHT22;60687;53.876;10.674;2023-04-12T17:53:32;9.40;99.90
72646;DHT22;60687;53.876;10.674;2023-04-12T18:03:36;9.50;99.90
72646;DHT22;60687;53.876;10.674;2023-04-12T18:13:39;9.40;99.90
72646;DHT22;60687;53.876;10.674;2023-04-12T18:23:43;9.40;99.90
72646;DHT22;60687;53.876;10.674;2023-04-12T18:33:45;9.40;99.90
72646;DHT22;60687;53.876;10.674;2023-04-12T18:43:50;9.40;99.90
72646;DHT22;60687;53.876;10.674;2023-04-12T18:53:53;9.50;99.90
72646;DHT22;60687;53.876;10.674;2023-04-12T19:03:57;9.50;99.90
72646;DHT22;60687;53.876;10.674;2023-04-12T19:14:08;9.50;99.90
72646;DHT22;60687;53.876;10.674;2023-04-12T19:24:12;9.50;99.90
72646;DHT22;60687;53.876;10.674;2023-04-12T19:34:16;9.40;99.90
72646;DHT22;60687;53.876;10.674;2023-04-12T19:44:19;9.50;99.90
72646;DHT22;60687;53.876;10.674;2023-04-12T19:54:23;9.50;99.90
72646;DHT22;60687;53.876;10.674;2023-04-12T20:04:27;9.50;99.90
72646;DHT22;60687;53.876;10.674;2023-04-12T20:14:32;9.50;99.90
72646;DHT22;60687;53.876;10.674;2023-04-12T20:24:41;9.50;99.90
72646;DHT22;60687;53.876;10.674;2023-04-12T20:34:43;9.50;99.90
72646;DHT22;60687;53.876;10.674;2023-04-12T20:44:51;9.50;99.90
72646;DHT22;60687;53.876;10.674;2023-04-12T20:54:53;9.50;99.90
72646;DHT22;60687;53.876;10.674;2023-04-12T21:04:59;9.40;99.90
72646;DHT22;60687;53.876;10.674;2023-04-12T21:15:01;9.40;99.90
72646;DHT22;60687;53.876;10.674;2023-04-12T21:25:10;9.40;99.90
72646;DHT22;60687;53.876;10.674;2023-04-12T21:35:13;9.40;99.90
72646;DHT22;60687;53.876;10.674;2023-04-12T21:45:20;9.30;99.90
72646;DHT22;60687;53.876;10.674;2023-04-12T21:55:23;9.10;99.90
72646;DHT22;60687;53.876;10.674;2023-04-12T22:05:26;9.00;99.90
72646;DHT22;60687;53.876;10.674;2023-04-12T22:15:29;8.90;99.90
72646;DHT22;60687;53.876;10.674;2023-04-12T22:25:34;8.90;99.90
72646;DHT22;60687;53.876;10.674;2023-04-12T22:35:37;8.80;99.90
72646;DHT22;60687;53.876;10.674;2023-04-12T22:45:41;8.70;99.90
72646;DHT22;60687;53.876;10.674;2023-04-12T22:55:46;8.50;99.90
72646;DHT22;60687;53.876;10.674;2023-04-12T23:05:49;8.30;99.90
72646;DHT22;60687;53.876;10.674;2023-04-12T23:15:53;8.10;99.90
72646;DHT22;60687;53.876;10.674;2023-04-12T23:25:58;8.00;99.90
72646;DHT22;60687;53.876;10.674;2023-04-12T23:36:01;7.80;99.90
72646;DHT22;60687;53.876;10.674;2023-04-12T23:46:06;7.80;99.90
72646;DHT22;60687;53.876;10.674;2023-04-12T23:56:09;7.70;99.90
